Time;durP1;ratioP1;P1;durP2;ratioP2;P2;SDS_P1;SDS_P2;PMS_P1;PMS_P2;Temp;Humidity;BMP_temperature;BMP_pressure;BME280_temperature;BME280_humidity;BME280_pressure;Samples;Min_cycle;Max_cycle;Signal;HPM_P1;HPM_P2
2022/02/18 00:00:25;;;;;;;6.90;1.38;;;6.80;91.00;;;;;;2049023;28;20044;-90
2022/02/18 00:01:44;;;;;;;6.32;1.00;;;6.70;91.00;;;;;;2050852;28;20171;-91
2022/02/18 00:03:04;;;;;;;6.07;1.40;;;6.70;91.00;;;;;;2053758;28;20050;-91
2022/02/18 00:04:23;;;;;;;4.85;1.10;;;6.70;91.00;;;;;;2065229;28;20742;-91
2022/02/18 00:05:43;;;;;;;8.45;1.20;;;6.80;91.10;;;;;;2061228;28;20085;-90
2022/02/18 00:07:03;;;;;;;3.83;0.73;;;6.80;91.10;;;;;;2061279;28;20043;-90
2022/02/18 00:08:24;;;;;;;7.22;1.35;;;6.80;91.40;;;;;;2049254;28;20032;-90
2022/02/18 00:09:43;;;;;;;5.22;1.17;;;6.80;91.10;;;;;;2074043;28;20026;-91
2022/02/18 00:11:04;;;;;;;6.80;1.33;;;6.80;91.10;;;;;;2053932;28;20110;-90
2022/02/18 00:12:23;;;;;;;7.90;1.10;;;6.70;91.10;;;;;;2056850;28;20042;-90
2022/02/18 00:13:42;;;;;;;6.57;1.05;;;6.80;91.20;;;;;;2064699;28;20050;-91
2022/02/18 00:15:04;;;;;;;6.00;1.20;;;6.80;91.20;;;;;;2065085;28;20042;-90
2022/02/18 00:16:24;;;;;;;6.95;1.63;;;6.80;91.20;;;;;;2064922;28;20042;-90
2022/02/18 00:17:43;;;;;;;3.20;0.90;;;6.80;91.20;;;;;;2063698;28;20069;-90
2022/02/18 00:19:03;;;;;;;4.68;1.23;;;6.80;91.20;;;;;;2057030;28;20066;-90
2022/02/18 00:20:22;;;;;;;5.70;1.15;;;6.80;91.30;;;;;;2060758;28;20042;-91
2022/02/18 00:21:41;;;;;;;4.50;0.80;;;6.80;91.30;;;;;;2046132;28;20040;-90
2022/02/18 00:23:02;;;;;;;5.93;1.00;;;6.80;91.30;;;;;;2053733;28;20035;-91
2022/02/18 00:24:22;;;;;;;;;;;6.80;91.30;;;;;;2063703;28;20059;-90
2022/02/18 00:25:41;;;;;;;5.82;1.20;;;6.80;91.30;;;;;;2061600;28;19913;-91
2022/02/18 00:27:00;;;;;;;4.07;1.00;;;6.80;91.20;;;;;;2059112;28;20447;-90
2022/02/18 00:28:19;;;;;;;5.93;1.10;;;6.80;91.20;;;;;;2055136;28;20080;-90
2022/02/18 00:29:38;;;;;;;5.03;0.90;;;6.80;91.30;;;;;;2045515;29;20043;-90
2022/02/18 00:30:57;;;;;;;5.40;0.90;;;6.80;91.30;;;;;;2061795;28;20137;-90
2022/02/18 00:32:17;;;;;;;4.60;0.80;;;6.80;91.30;;;;;;2066289;28;20039;-90
2022/02/18 00:33:36;;;;;;;4.93;1.05;;;6.80;91.30;;;;;;2075883;28;20042;-90
2022/02/18 00:34:55;;;;;;;4.88;0.90;;;6.80;91.30;;;;;;2063263;28;20471;-90
2022/02/18 00:36:15;;;;;;;5.65;1.20;;;6.80;91.40;;;;;;2058566;28;20054;-90
2022/02/18 00:37:34;;;;;;;3.67;0.80;;;6.80;91.40;;;;;;2055977;28;20511;-90
2022/02/18 00:38:53;;;;;;;4.47;1.23;;;6.80;91.40;;;;;;2063741;28;20023;-90
2022/02/18 00:40:13;;;;;;;5.00;1.00;;;6.80;91.40;;;;;;2056985;28;20513;-90
2022/02/18 00:41:32;;;;;;;5.35;0.88;;;6.80;91.40;;;;;;2061800;28;20038;-90
2022/02/18 00:42:51;;;;;;;5.93;1.15;;;6.80;91.50;;;;;;2054578;28;20161;-90
2022/02/18 00:44:10;;;;;;;3.70;0.77;;;6.80;91.50;;;;;;2062567;28;20053;-90
2022/02/18 00:45:30;;;;;;;3.95;0.80;;;6.80;91.50;;;;;;2066048;28;20525;-90
2022/02/18 00:46:51;;;;;;;3.75;0.80;;;6.80;91.50;;;;;;2047187;28;20525;-90
2022/02/18 00:48:11;;;;;;;4.20;1.40;;;6.80;91.50;;;;;;2050921;28;20054;-91
2022/02/18 00:49:31;;;;;;;4.53;1.00;;;6.80;91.50;;;;;;2054589;28;20117;-90
2022/02/18 00:50:50;;;;;;;5.78;1.15;;;6.80;91.50;;;;;;2047065;28;20429;-90
2022/02/18 00:52:09;;;;;;;2.83;0.85;;;6.80;91.50;;;;;;2037966;28;20040;-88
2022/02/18 00:53:29;;;;;;;4.32;1.00;;;6.80;91.50;;;;;;2040942;29;20075;-91
2022/02/18 00:54:48;;;;;;;5.75;1.58;;;6.80;91.60;;;;;;2050280;28;20118;-91
2022/02/18 00:56:07;;;;;;;5.15;0.80;;;6.80;91.60;;;;;;2048839;28;20027;-90
2022/02/18 00:57:27;;;;;;;5.75;1.20;;;6.80;91.60;;;;;;2049597;28;20050;-90
2022/02/18 00:58:46;;;;;;;3.97;0.95;;;6.80;91.60;;;;;;2055982;28;20087;-91
2022/02/18 01:00:08;;;;;;;5.57;1.38;;;6.80;91.60;;;;;;2059014;28;20397;-90
2022/02/18 01:01:28;;;;;;;5.45;0.85;;;6.90;91.60;;;;;;2063233;28;20042;-90
2022/02/18 01:02:47;;;;;;;6.05;1.00;;;6.80;91.60;;;;;;2083105;28;20044;-90
2022/02/18 01:04:07;;;;;;;3.95;1.00;;;6.80;91.60;;;;;;2089833;28;20473;-90
2022/02/18 01:05:26;;;;;;;5.85;1.38;;;6.80;91.60;;;;;;2065167;28;20039;-90
2022/02/18 01:06:45;;;;;;;5.47;1.30;;;6.80;91.70;;;;;;2098282;28;20473;-89
2022/02/18 01:08:05;;;;;;;6.68;1.63;;;6.80;91.70;;;;;;2090015;28;20037;-90
2022/02/18 01:09:24;;;;;;;4.75;1.13;;;6.80;91.70;;;;;;2092454;28;20036;-90
2022/02/18 01:10:44;;;;;;;7.50;1.08;;;6.80;91.70;;;;;;2089127;28;20048;-90
2022/02/18 01:12:03;;;;;;;4.15;0.88;;;6.80;91.70;;;;;;2091205;28;20037;-91
2022/02/18 01:13:23;;;;;;;5.30;1.35;;;6.80;91.70;;;;;;2092144;28;20049;-91
2022/02/18 01:14:42;;;;;;;4.00;0.75;;;6.80;91.80;;;;;;2090877;28;20036;-90
2022/02/18 01:16:01;;;;;;;4.55;1.00;;;6.80;91.80;;;;;;2087847;28;20052;-91
2022/02/18 01:17:21;;;;;;;5.25;0.90;;;6.80;91.80;;;;;;2098853;28;20045;-90
2022/02/18 01:18:40;;;;;;;3.85;0.93;;;6.80;91.80;;;;;;2080433;28;20041;-90
2022/02/18 01:20:00;;;;;;;5.13;0.90;;;6.80;91.90;;;;;;2089677;28;20049;-90
2022/02/18 01:21:20;;;;;;;6.18;1.10;;;6.80;91.90;;;;;;2092167;28;20093;-90
2022/02/18 01:22:40;;;;;;;3.72;0.80;;;6.80;91.90;;;;;;2086081;28;20049;-90
2022/02/18 01:24:03;;;;;;;5.55;1.15;;;6.80;91.90;;;;;;2072425;28;20034;-91
2022/02/18 01:25:22;;;;;;;5.32;0.95;;;6.80;91.90;;;;;;2087463;28;20045;-91
2022/02/18 01:26:42;;;;;;;3.95;0.95;;;6.80;91.90;;;;;;2099700;28;20410;-90
2022/02/18 01:28:01;;;;;;;5.22;0.95;;;6.70;91.90;;;;;;2080547;28;20041;-91
2022/02/18 01:29:20;;;;;;;6.45;0.98;;;6.80;91.90;;;;;;2081522;28;20038;-90
2022/02/18 01:30:39;;;;;;;5.95;1.10;;;6.80;92.00;;;;;;2090502;28;20041;-90
2022/02/18 01:31:59;;;;;;;3.58;0.95;;;6.70;92.00;;;;;;2075377;28;20054;-91
2022/02/18 01:33:18;;;;;;;4.60;1.13;;;6.80;92.00;;;;;;2085959;28;20037;-90
2022/02/18 01:34:40;;;;;;;3.80;0.82;;;6.70;92.00;;;;;;2080418;28;20049;-91
2022/02/18 01:35:59;;;;;;;5.57;1.05;;;6.70;92.00;;;;;;2087593;28;20049;-91
2022/02/18 01:37:18;;;;;;;4.75;1.17;;;6.70;92.00;;;;;;2080463;28;20116;-90
2022/02/18 01:38:37;;;;;;;5.28;1.00;;;6.80;92.00;;;;;;2092583;28;20037;-90
2022/02/18 01:39:56;;;;;;;3.85;0.85;;;6.70;92.00;;;;;;2099484;28;20041;-90
2022/02/18 01:41:15;;;;;;;4.60;1.00;;;6.70;92.10;;;;;;2090820;28;20045;-90
2022/02/18 01:42:35;;;;;;;3.30;0.90;;;6.70;92.10;;;;;;2092640;28;20036;-90
2022/02/18 01:43:56;;;;;;;5.85;1.10;;;6.70;92.10;;;;;;2083236;28;20037;-90
2022/02/18 01:45:16;;;;;;;5.03;1.23;;;6.70;92.10;;;;;;2083423;28;20034;-90
2022/02/18 01:46:36;;;;;;;4.45;1.15;;;6.70;92.10;;;;;;2090418;28;20075;-90
2022/02/18 01:47:55;;;;;;;4.93;0.73;;;6.70;92.10;;;;;;2075892;28;20049;-90
2022/02/18 01:49:15;;;;;;;4.07;1.00;;;6.80;92.10;;;;;;2079597;28;20057;-90
2022/02/18 01:50:34;;;;;;;4.88;0.80;;;6.70;92.10;;;;;;2100549;28;20100;-91
2022/02/18 01:51:55;;;;;;;4.72;1.20;;;6.80;92.10;;;;;;2116216;28;20028;-88
2022/02/18 01:53:14;;;;;;;;;;;6.80;92.10;;;;;;2114500;28;20088;-90
2022/02/18 01:54:34;;;;;;;4.15;0.73;;;6.80;92.10;;;;;;2108047;28;19920;-90
2022/02/18 01:55:54;;;;;;;3.42;1.30;;;6.70;92.00;;;;;;2103150;28;20036;-90
2022/02/18 01:57:14;;;;;;;5.57;1.10;;;6.70;92.00;;;;;;2112269;28;20044;-90
2022/02/18 01:58:34;;;;;;;4.15;0.98;;;6.70;92.00;;;;;;2098213;28;20033;-91
2022/02/18 01:59:53;;;;;;;4.15;0.90;;;6.70;92.00;;;;;;2091851;28;20041;-90
2022/02/18 02:01:13;;;;;;;4.60;1.00;;;6.80;92.40;;;;;;2094462;28;20036;-90
2022/02/18 02:02:32;;;;;;;3.33;0.80;;;6.80;92.10;;;;;;2099031;28;20052;-89
2022/02/18 02:03:51;;;;;;;6.22;0.90;;;6.70;92.10;;;;;;2088245;28;20038;-90
2022/02/18 02:05:11;;;;;;;5.10;1.02;;;6.80;92.10;;;;;;2086694;28;20060;-91
2022/02/18 02:06:31;;;;;;;3.45;1.10;;;6.80;92.10;;;;;;2053263;28;20047;-90
2022/02/18 02:07:51;;;;;;;4.18;1.02;;;6.80;92.10;;;;;;2049990;29;20078;-90
2022/02/18 02:09:10;;;;;;;5.90;1.17;;;6.80;92.10;;;;;;2056960;28;20058;-90
2022/02/18 02:10:30;;;;;;;4.40;1.10;;;6.80;92.10;;;;;;2049952;29;20122;-90
2022/02/18 02:11:49;;;;;;;4.82;1.10;;;6.80;92.10;;;;;;2052502;28;20034;-90
2022/02/18 02:13:09;;;;;;;2.28;0.75;;;6.80;92.10;;;;;;2057755;28;20039;-90
2022/02/18 02:14:28;;;;;;;4.05;0.80;;;6.80;92.20;;;;;;2057699;28;20047;-90
2022/02/18 02:15:47;;;;;;;5.50;1.00;;;6.80;92.20;;;;;;2051045;28;20043;-89
2022/02/18 02:17:06;;;;;;;6.80;1.10;;;6.80;92.20;;;;;;2064479;28;20046;-91
2022/02/18 02:18:25;;;;;;;4.93;0.77;;;6.90;92.20;;;;;;2056648;28;20125;-90
2022/02/18 02:19:45;;;;;;;3.50;0.85;;;6.80;92.20;;;;;;2051429;28;20042;-90
2022/02/18 02:21:05;;;;;;;5.45;1.05;;;6.90;92.20;;;;;;2091348;28;20021;-90
2022/02/18 02:22:27;;;;;;;4.30;0.80;;;6.90;92.20;;;;;;2069666;28;20043;-90
2022/02/18 02:23:46;;;;;;;5.22;1.00;;;6.90;92.20;;;;;;2057161;28;20454;-91
2022/02/18 02:25:07;;;;;;;6.13;0.90;;;6.90;92.20;;;;;;2057088;28;20043;-91
2022/02/18 02:26:26;;;;;;;4.05;0.90;;;6.90;92.40;;;;;;2056603;28;20038;-90
2022/02/18 02:27:46;;;;;;;6.70;1.10;;;6.90;92.10;;;;;;2046594;29;20123;-90
2022/02/18 02:29:05;;;;;;;5.05;1.25;;;6.90;92.10;;;;;;2052290;28;20047;-90
2022/02/18 02:30:25;;;;;;;6.03;1.17;;;6.90;92.10;;;;;;2049207;29;20035;-91
2022/02/18 02:31:44;;;;;;;6.30;1.02;;;6.90;92.10;;;;;;2050312;28;20078;-90
2022/02/18 02:33:04;;;;;;;4.97;1.20;;;6.90;92.10;;;;;;2053088;28;20032;-90
2022/02/18 02:34:23;;;;;;;4.32;1.05;;;6.90;92.10;;;;;;2049633;28;20036;-90
2022/02/18 02:35:42;;;;;;;4.28;1.10;;;6.90;92.10;;;;;;2049814;29;20035;-90
2022/02/18 02:37:02;;;;;;;2.75;0.57;;;7.00;92.40;;;;;;2050835;28;20685;-90
2022/02/18 02:38:21;;;;;;;5.75;1.40;;;7.00;92.10;;;;;;2061618;28;20038;-90
2022/02/18 02:39:41;;;;;;;6.00;1.23;;;7.00;92.20;;;;;;2057612;28;20081;-91
2022/02/18 02:41:00;;;;;;;2.67;0.85;;;7.00;92.20;;;;;;2053920;28;20047;-89
2022/02/18 02:42:19;;;;;;;3.28;0.98;;;7.00;92.20;;;;;;2056897;28;20576;-89
2022/02/18 02:43:38;;;;;;;3.38;0.95;;;7.00;92.20;;;;;;2056216;28;20031;-90
2022/02/18 02:44:57;;;;;;;3.30;0.90;;;7.00;92.20;;;;;;2062072;28;20509;-90
2022/02/18 02:46:17;;;;;;;3.33;0.75;;;7.00;92.20;;;;;;2056582;28;20035;-90
2022/02/18 02:47:39;;;;;;;5.38;1.17;;;7.00;92.20;;;;;;2044499;28;20044;-90
2022/02/18 02:48:58;;;;;;;4.75;1.25;;;7.00;92.20;;;;;;2050819;28;20117;-89
2022/02/18 02:50:18;;;;;;;4.47;1.02;;;7.00;92.20;;;;;;2051756;28;20397;-90
2022/02/18 02:51:38;;;;;;;4.05;0.80;;;7.00;92.20;;;;;;2044164;28;20067;-90
2022/02/18 02:52:58;;;;;;;;;;;7.00;92.20;;;;;;2052400;28;20035;-90
2022/02/18 02:54:17;;;;;;;5.15;1.17;;;7.00;92.20;;;;;;2052391;28;19915;-89
2022/02/18 02:55:36;;;;;;;7.03;1.40;;;7.00;92.20;;;;;;2049389;29;20039;-90
2022/02/18 02:56:56;;;;;;;5.07;1.10;;;7.00;92.20;;;;;;2052345;28;20042;-90
2022/02/18 02:58:16;;;;;;;4.47;1.23;;;7.00;92.20;;;;;;2059922;28;20428;-91
2022/02/18 02:59:35;;;;;;;3.75;1.02;;;7.00;92.20;;;;;;2043719;28;20553;-90
2022/02/18 03:00:54;;;;;;;5.63;1.08;;;7.00;92.20;;;;;;2048240;28;20529;-90
2022/02/18 03:02:14;;;;;;;3.90;0.90;;;7.00;92.20;;;;;;2049108;28;20032;-90
2022/02/18 03:03:33;;;;;;;3.53;1.15;;;7.00;92.20;;;;;;2055174;28;20043;-90
2022/02/18 03:04:52;;;;;;;6.38;1.10;;;7.00;92.20;;;;;;2051065;28;20118;-89
2022/02/18 03:06:12;;;;;;;5.25;1.10;;;7.00;92.30;;;;;;2057941;28;20075;-90
2022/02/18 03:07:31;;;;;;;6.90;1.15;;;7.00;92.20;;;;;;2084102;28;20431;-90
2022/02/18 03:08:51;;;;;;;5.65;1.20;;;7.00;92.50;;;;;;2059718;28;20030;-90
2022/02/18 03:10:10;;;;;;;5.28;1.20;;;7.00;92.20;;;;;;2077591;28;20534;-90
2022/02/18 03:11:29;;;;;;;4.60;1.10;;;7.00;92.20;;;;;;2057439;28;20043;-90
2022/02/18 03:12:49;;;;;;;4.35;1.30;;;7.00;92.30;;;;;;2040799;29;20052;-90
2022/02/18 03:14:09;;;;;;;3.63;1.10;;;7.00;92.20;;;;;;2049659;28;20030;-91
2022/02/18 03:15:29;;;;;;;5.00;1.23;;;7.00;92.30;;;;;;2062030;28;20456;-89
2022/02/18 03:16:48;;;;;;;4.60;1.45;;;7.00;92.30;;;;;;2062655;28;20030;-91
2022/02/18 03:18:07;;;;;;;5.72;1.30;;;7.00;92.30;;;;;;2056706;28;20071;-90
2022/02/18 03:19:27;;;;;;;5.38;2.13;;;7.00;92.30;;;;;;2058222;28;20043;-90
2022/02/18 03:20:46;;;;;;;5.70;1.17;;;7.00;92.30;;;;;;2107119;28;20514;-90
2022/02/18 03:22:06;;;;;;;5.82;1.38;;;7.00;92.30;;;;;;2098847;28;20048;-90
2022/02/18 03:23:25;;;;;;;7.53;1.63;;;7.00;92.30;;;;;;2081516;28;20036;-90
2022/02/18 03:24:45;;;;;;;5.18;1.42;;;7.00;92.30;;;;;;2050408;28;20050;-90
2022/02/18 03:26:07;;;;;;;5.43;1.40;;;7.10;92.30;;;;;;2053268;28;20051;-90
2022/02/18 03:27:26;;;;;;;6.03;1.42;;;7.10;92.30;;;;;;2056921;28;20058;-90
2022/02/18 03:28:45;;;;;;;5.82;1.30;;;7.10;92.20;;;;;;2065746;28;20451;-90
2022/02/18 03:30:07;;;;;;;4.35;1.27;;;7.10;92.20;;;;;;2059859;28;20043;-91
2022/02/18 03:31:26;;;;;;;4.80;1.33;;;7.10;92.20;;;;;;2060831;28;20043;-90
2022/02/18 03:32:46;;;;;;;7.95;1.38;;;7.10;92.20;;;;;;2058120;28;20043;-89
2022/02/18 03:34:05;;;;;;;5.53;1.45;;;7.10;92.20;;;;;;2062965;28;20110;-90
2022/02/18 03:35:25;;;;;;;3.60;1.23;;;7.10;92.20;;;;;;2062919;28;20050;-89
2022/02/18 03:36:44;;;;;;;7.28;1.40;;;7.10;92.20;;;;;;2056247;28;20050;-90
2022/02/18 03:38:04;;;;;;;4.93;1.23;;;7.10;92.20;;;;;;2064509;28;20045;-91
2022/02/18 03:39:23;;;;;;;4.88;1.15;;;7.10;92.20;;;;;;2051114;28;20039;-90
2022/02/18 03:40:42;;;;;;;4.32;1.23;;;7.10;92.20;;;;;;2064186;28;20780;-90
2022/02/18 03:42:02;;;;;;;5.55;1.50;;;7.10;92.20;;;;;;2065048;28;20109;-91
2022/02/18 03:43:22;;;;;;;4.88;1.20;;;7.10;92.20;;;;;;2057328;28;20042;-90
2022/02/18 03:44:41;;;;;;;6.28;1.58;;;7.10;92.20;;;;;;2056998;28;20054;-90
2022/02/18 03:46:00;;;;;;;5.25;1.90;;;7.10;92.20;;;;;;2061324;28;20121;-90
2022/02/18 03:47:20;;;;;;;6.95;1.30;;;7.10;92.20;;;;;;2056673;28;20055;-90
2022/02/18 03:48:39;;;;;;;3.95;1.10;;;7.20;92.20;;;;;;2057632;28;20039;-91
2022/02/18 03:49:58;;;;;;;7.25;1.58;;;7.10;92.20;;;;;;2059465;28;20042;-91
2022/02/18 03:51:17;;;;;;;5.97;1.40;;;7.20;92.20;;;;;;2064321;28;20400;-90
2022/02/18 03:52:36;;;;;;;5.25;1.23;;;7.20;92.20;;;;;;2060606;28;20042;-89
2022/02/18 03:53:55;;;;;;;5.68;1.30;;;7.20;92.20;;;;;;2057383;28;20031;-91
2022/02/18 03:55:14;;;;;;;5.10;1.15;;;7.20;92.20;;;;;;2056681;28;20043;-91
2022/02/18 03:56:34;;;;;;;8.55;1.38;;;7.20;92.20;;;;;;2060876;28;20054;-90
2022/02/18 03:57:53;;;;;;;6.80;1.50;;;7.20;92.20;;;;;;2061604;28;20043;-90
2022/02/18 03:59:12;;;;;;;8.70;1.65;;;7.20;92.20;;;;;;2057089;28;20474;-90
2022/02/18 04:00:31;;;;;;;5.57;1.17;;;7.20;92.20;;;;;;2058428;28;20477;-91
2022/02/18 04:01:51;;;;;;;4.75;1.10;;;7.20;92.20;;;;;;2051123;28;20035;-90
2022/02/18 04:03:10;;;;;;;5.70;1.42;;;7.20;92.20;;;;;;2062788;28;20124;-91
2022/02/18 04:04:29;;;;;;;6.63;1.55;;;7.20;92.20;;;;;;2063438;28;20046;-90
2022/02/18 04:05:49;;;;;;;5.63;1.30;;;7.20;92.20;;;;;;2054889;28;20051;-90
2022/02/18 04:07:11;;;;;;;6.88;1.40;;;7.20;92.20;;;;;;2086010;28;20053;-91
2022/02/18 04:08:30;;;;;;;5.82;1.50;;;7.20;92.20;;;;;;2068022;28;20038;-90
2022/02/18 04:09:49;;;;;;;9.32;1.60;;;7.20;92.30;;;;;;2057301;28;20043;-90
2022/02/18 04:11:08;;;;;;;5.45;1.33;;;7.20;92.30;;;;;;2060686;28;20113;-90
2022/02/18 04:12:28;;;;;;;5.63;1.40;;;7.20;92.30;;;;;;2092075;28;20050;-90
2022/02/18 04:13:47;;;;;;;5.97;1.00;;;7.20;92.30;;;;;;2070444;28;20114;-90
2022/02/18 04:15:06;;;;;;;5.72;1.30;;;7.20;92.30;;;;;;2094639;28;20048;-90
2022/02/18 04:16:27;;;;;;;8.02;1.40;;;7.20;92.30;;;;;;2069485;28;20043;-90
2022/02/18 04:17:46;;;;;;;7.07;1.50;;;7.20;92.30;;;;;;2070009;28;20046;-91
2022/02/18 04:19:05;;;;;;;7.32;1.33;;;7.20;92.30;;;;;;2060308;28;20038;-90
2022/02/18 04:20:26;;;;;;;6.75;1.90;;;7.20;92.30;;;;;;2063935;28;20094;-90
2022/02/18 04:21:45;;;;;;;7.32;1.20;;;7.20;92.30;;;;;;2060542;28;20066;-90
2022/02/18 04:23:04;;;;;;;6.78;1.35;;;7.30;92.40;;;;;;2056550;28;20042;-90
2022/02/18 04:24:23;;;;;;;6.72;1.50;;;7.20;92.40;;;;;;2060924;28;20051;-90
2022/02/18 04:25:43;;;;;;;7.28;1.63;;;7.20;92.40;;;;;;2045662;28;20055;-90
2022/02/18 04:27:02;;;;;;;6.25;1.30;;;7.20;92.40;;;;;;2057324;28;20574;-91
2022/02/18 04:28:22;;;;;;;7.70;1.45;;;7.20;92.40;;;;;;2061556;28;20472;-90
2022/02/18 04:29:41;;;;;;;6.93;1.60;;;7.20;92.40;;;;;;2059481;28;20046;-90
2022/02/18 04:31:01;;;;;;;7.30;1.50;;;7.20;92.50;;;;;;2063853;28;20026;-90
2022/02/18 04:32:20;;;;;;;6.63;1.42;;;7.20;92.50;;;;;;2058609;28;20043;-90
2022/02/18 04:33:39;;;;;;;6.60;1.50;;;7.20;92.50;;;;;;2069695;28;20043;-90
2022/02/18 04:34:59;;;;;;;7.38;1.60;;;7.20;92.70;;;;;;2042930;28;20036;-91
2022/02/18 04:36:18;;;;;;;7.68;1.75;;;7.20;92.50;;;;;;2044306;28;20040;-90
2022/02/18 04:37:37;;;;;;;6.75;1.80;;;7.20;92.50;;;;;;2054997;28;20046;-91
2022/02/18 04:38:57;;;;;;;5.68;1.48;;;7.20;92.50;;;;;;2046975;29;20051;-90
2022/02/18 04:40:17;;;;;;;6.18;1.60;;;7.20;92.50;;;;;;2044178;28;20043;-91
2022/02/18 04:41:38;;;;;;;5.82;1.20;;;7.20;92.60;;;;;;2052171;28;20039;-91
2022/02/18 04:42:57;;;;;;;6.38;1.50;;;7.20;92.60;;;;;;2054636;28;20039;-90
2022/02/18 04:44:17;;;;;;;5.97;1.50;;;7.20;92.60;;;;;;2057395;28;20030;-89
2022/02/18 04:45:36;;;;;;;6.53;1.33;;;7.30;92.60;;;;;;2056638;28;20039;-90
2022/02/18 04:46:55;;;;;;;6.30;1.60;;;7.20;92.60;;;;;;2056726;28;20075;-91
2022/02/18 04:48:14;;;;;;;5.88;1.20;;;7.20;92.60;;;;;;2051922;28;20051;-90
2022/02/18 04:49:34;;;;;;;8.32;2.15;;;7.20;92.60;;;;;;2057070;28;20071;-90
2022/02/18 04:50:53;;;;;;;6.20;1.58;;;7.20;92.60;;;;;;2067803;28;20046;-90
2022/02/18 04:52:14;;;;;;;6.00;1.40;;;7.20;92.60;;;;;;2042910;28;20043;-89
2022/02/18 04:53:33;;;;;;;8.40;1.50;;;7.20;92.70;;;;;;2035595;28;20048;-90
2022/02/18 04:54:54;;;;;;;8.70;1.60;;;7.20;92.60;;;;;;2061346;28;20562;-90
2022/02/18 04:56:13;;;;;;;5.85;1.55;;;7.20;92.70;;;;;;2076837;28;20054;-90
2022/02/18 04:57:33;;;;;;;8.45;1.80;;;7.30;92.70;;;;;;2059929;28;20074;-90
2022/02/18 04:58:52;;;;;;;6.35;1.30;;;7.30;92.70;;;;;;2064395;28;20038;-91
2022/02/18 05:00:12;;;;;;;7.93;1.63;;;7.20;92.70;;;;;;2093329;28;20119;-90
2022/02/18 05:01:31;;;;;;;5.53;1.35;;;7.30;92.70;;;;;;2053641;28;20180;-91
2022/02/18 05:02:52;;;;;;;7.93;1.40;;;7.30;92.70;;;;;;2057227;28;20528;-91
2022/02/18 05:04:11;;;;;;;;;;;7.30;92.70;;;;;;2057027;28;20485;-90
2022/02/18 05:05:30;;;;;;;6.88;1.50;;;7.30;92.70;;;;;;2058286;28;19911;-90
2022/02/18 05:06:50;;;;;;;8.10;1.38;;;7.20;92.60;;;;;;2070479;28;20054;-90
2022/02/18 05:08:10;;;;;;;8.52;1.60;;;7.30;92.70;;;;;;2070578;28;20046;-89
2022/02/18 05:09:30;;;;;;;12.88;1.80;;;7.30;92.70;;;;;;2064418;28;20039;-90
2022/02/18 05:10:49;;;;;;;7.93;1.90;;;7.30;92.90;;;;;;2067923;28;20039;-90
2022/02/18 05:12:08;;;;;;;8.05;1.75;;;7.30;92.70;;;;;;2071246;28;20027;-90
2022/02/18 05:13:27;;;;;;;7.40;1.50;;;7.30;92.70;;;;;;2071460;28;20039;-90
2022/02/18 05:14:48;;;;;;;9.23;1.80;;;7.30;92.70;;;;;;2064723;28;20118;-90
2022/02/18 05:16:08;;;;;;;8.88;1.98;;;7.30;92.70;;;;;;2064926;28;20058;-90
2022/02/18 05:17:27;;;;;;;8.63;1.90;;;7.30;92.70;;;;;;2107713;28;20044;-90
2022/02/18 05:18:47;;;;;;;10.57;2.10;;;7.30;92.80;;;;;;2098329;28;20036;-90
2022/02/18 05:20:07;;;;;;;10.32;1.77;;;7.30;92.80;;;;;;2076861;28;20035;-90
2022/02/18 05:21:26;;;;;;;8.20;1.48;;;7.30;92.80;;;;;;2057035;28;20039;-90
2022/02/18 05:22:46;;;;;;;12.63;1.98;;;7.30;92.80;;;;;;2055165;28;20509;-90
2022/02/18 05:24:07;;;;;;;7.15;1.80;;;7.30;92.80;;;;;;2068905;28;20035;-90
2022/02/18 05:25:27;;;;;;;5.95;1.55;;;7.30;92.80;;;;;;2055271;28;20441;-90
2022/02/18 05:26:46;;;;;;;7.13;1.27;;;7.30;92.80;;;;;;2072035;28;20040;-90
2022/02/18 05:28:05;;;;;;;7.38;1.50;;;7.30;92.80;;;;;;2056608;28;20105;-90
2022/02/18 05:29:24;;;;;;;7.05;1.67;;;7.40;92.80;;;;;;2061408;28;20463;-90
2022/02/18 05:30:43;;;;;;;7.65;1.50;;;7.30;92.80;;;;;;2054615;28;20508;-90
2022/02/18 05:32:04;;;;;;;7.22;2.20;;;7.40;92.90;;;;;;2053134;28;20043;-90
2022/02/18 05:33:23;;;;;;;6.65;1.63;;;7.40;92.90;;;;;;2068307;28;20516;-91
2022/02/18 05:34:42;;;;;;;8.57;1.70;;;7.40;92.90;;;;;;2069563;28;20039;-90
2022/02/18 05:36:03;;;;;;;8.45;2.17;;;7.40;92.90;;;;;;2057139;28;20035;-90
2022/02/18 05:37:22;;;;;;;7.55;1.75;;;7.40;93.10;;;;;;2042794;28;20074;-90
2022/02/18 05:38:43;;;;;;;8.90;1.75;;;7.40;92.90;;;;;;2071909;28;20042;-90
2022/02/18 05:40:03;;;;;;;8.32;2.03;;;7.40;92.90;;;;;;2069415;28;20493;-90
2022/02/18 05:41:22;;;;;;;6.65;1.85;;;7.40;92.90;;;;;;2071397;28;20039;-90
2022/02/18 05:42:42;;;;;;;7.18;1.90;;;7.40;92.90;;;;;;2056132;28;20038;-90
2022/02/18 05:44:01;;;;;;;7.05;1.70;;;7.40;92.90;;;;;;2067045;28;20054;-90
2022/02/18 05:45:20;;;;;;;11.20;1.98;;;7.40;92.90;;;;;;2075790;28;20046;-90
2022/02/18 05:46:39;;;;;;;8.43;1.95;;;7.40;92.90;;;;;;2059604;28;20047;-89
2022/02/18 05:47:59;;;;;;;10.43;1.80;;;7.40;92.90;;;;;;2048390;28;20043;-89
2022/02/18 05:49:18;;;;;;;9.85;1.92;;;7.40;92.90;;;;;;2054531;28;20039;-90
2022/02/18 05:50:37;;;;;;;12.68;2.40;;;7.40;92.90;;;;;;2045115;28;20046;-90
2022/02/18 05:51:57;;;;;;;9.20;1.70;;;7.40;92.90;;;;;;2053890;28;20043;-90
2022/02/18 05:53:16;;;;;;;7.43;1.83;;;7.40;92.90;;;;;;2058161;28;20046;-90
2022/02/18 05:54:35;;;;;;;12.40;2.40;;;7.40;92.90;;;;;;2046799;28;20040;-89
2022/02/18 05:55:55;;;;;;;8.68;2.00;;;7.40;92.90;;;;;;2052714;28;20039;-89
2022/02/18 05:57:15;;;;;;;9.63;1.95;;;7.40;92.90;;;;;;2061838;28;20050;-90
2022/02/18 05:58:34;;;;;;;12.77;2.15;;;7.40;92.90;;;;;;2056183;28;20042;-89
2022/02/18 05:59:54;;;;;;;9.85;1.88;;;7.50;92.90;;;;;;2055459;28;20059;-90
2022/02/18 06:01:13;;;;;;;9.50;2.17;;;7.40;92.90;;;;;;2041772;28;20043;-90
2022/02/18 06:02:32;;;;;;;10.13;2.08;;;7.40;92.90;;;;;;2057227;28;20517;-91
2022/02/18 06:03:51;;;;;;;9.88;2.25;;;7.40;92.90;;;;;;2061743;28;20058;-91
2022/02/18 06:05:11;;;;;;;10.30;2.33;;;7.50;92.90;;;;;;2064403;28;20089;-90
2022/02/18 06:06:30;;;;;;;9.80;2.22;;;7.40;93.00;;;;;;2056134;28;20035;-91
2022/02/18 06:07:49;;;;;;;9.07;2.03;;;7.40;92.90;;;;;;2065540;28;20048;-89
2022/02/18 06:09:09;;;;;;;11.48;2.50;;;7.40;93.00;;;;;;2054056;28;20063;-89
2022/02/18 06:10:28;;;;;;;10.15;2.30;;;7.50;93.00;;;;;;2063105;28;20050;-89
2022/02/18 06:11:47;;;;;;;11.57;2.00;;;7.50;93.00;;;;;;2056675;28;20031;-90
2022/02/18 06:13:07;;;;;;;9.25;2.50;;;7.40;93.00;;;;;;2061215;28;20047;-91
2022/02/18 06:14:26;;;;;;;10.57;2.63;;;7.40;92.90;;;;;;2064072;28;20488;-90
2022/02/18 06:15:45;;;;;;;9.48;1.92;;;7.40;93.00;;;;;;2060591;28;20035;-90
2022/02/18 06:17:08;;;;;;;8.43;1.90;;;7.40;93.00;;;;;;2066407;28;20035;-91
2022/02/18 06:18:27;;;;;;;9.73;2.25;;;7.40;93.00;;;;;;2064518;28;20046;-88
2022/02/18 06:19:47;;;;;;;10.48;2.13;;;7.40;93.00;;;;;;2063213;28;20039;-89
2022/02/18 06:21:06;;;;;;;9.10;2.00;;;7.40;93.00;;;;;;2062311;28;20508;-87
2022/02/18 06:22:25;;;;;;;10.38;2.03;;;7.40;93.00;;;;;;2044876;28;20047;-89
2022/02/18 06:23:45;;;;;;;10.38;1.90;;;7.50;93.00;;;;;;2049341;28;20043;-90
2022/02/18 06:25:07;;;;;;;10.82;2.33;;;7.40;93.20;;;;;;2091927;28;20044;-90
2022/02/18 06:26:26;;;;;;;10.38;2.15;;;7.50;93.00;;;;;;2074062;28;20042;-90
2022/02/18 06:27:45;;;;;;;8.70;1.90;;;7.40;93.20;;;;;;2060516;28;20054;-90
2022/02/18 06:29:04;;;;;;;10.15;2.13;;;7.40;92.90;;;;;;2060861;28;20043;-89
2022/02/18 06:30:23;;;;;;;11.15;2.38;;;7.50;92.90;;;;;;2068882;28;20039;-89
2022/02/18 06:31:43;;;;;;;9.13;2.05;;;7.50;92.90;;;;;;2058795;28;20093;-90
2022/02/18 06:33:04;;;;;;;8.23;1.88;;;7.50;92.90;;;;;;2059854;28;20046;-92
2022/02/18 06:34:24;;;;;;;8.48;1.75;;;7.50;92.90;;;;;;2064390;28;20816;-89
2022/02/18 06:35:43;;;;;;;10.00;1.90;;;7.50;92.90;;;;;;2062839;28;20039;-89
2022/02/18 06:37:04;;;;;;;9.13;1.98;;;7.50;92.90;;;;;;2065146;28;20038;-89
2022/02/18 06:38:23;;;;;;;8.25;1.77;;;7.50;92.90;;;;;;2065089;28;20042;-88
2022/02/18 06:39:42;;;;;;;9.40;1.88;;;7.50;92.90;;;;;;2061179;28;20054;-91
2022/02/18 06:41:02;;;;;;;9.48;1.85;;;7.50;92.90;;;;;;2053803;28;20066;-90
2022/02/18 06:42:22;;;;;;;7.70;1.60;;;7.50;92.90;;;;;;2058691;28;20043;-88
2022/02/18 06:43:41;;;;;;;8.75;2.10;;;7.50;92.90;;;;;;2064020;28;20035;-89
2022/02/18 06:45:00;;;;;;;7.65;1.70;;;7.50;93.00;;;;;;2065123;28;20498;-89
2022/02/18 06:46:19;;;;;;;8.40;1.60;;;7.50;93.00;;;;;;2068792;28;20490;-89
2022/02/18 06:47:38;;;;;;;8.60;1.73;;;7.50;93.00;;;;;;2060081;28;20039;-89
2022/02/18 06:48:58;;;;;;;8.35;1.90;;;7.50;93.00;;;;;;2086751;28;20502;-89
2022/02/18 06:50:17;;;;;;;7.40;1.80;;;7.40;93.00;;;;;;2052733;28;20040;-89
2022/02/18 06:51:37;;;;;;;8.25;2.03;;;7.50;93.10;;;;;;2064869;28;20043;-89
2022/02/18 06:52:56;;;;;;;11.57;2.28;;;7.40;93.10;;;;;;2066668;28;20436;-89
2022/02/18 06:54:16;;;;;;;11.15;2.50;;;7.40;93.20;;;;;;2056788;28;20030;-89
2022/02/18 06:55:35;;;;;;;11.25;2.30;;;7.40;93.20;;;;;;2072413;28;20113;-88
2022/02/18 06:56:56;;;;;;;10.25;2.38;;;7.40;93.30;;;;;;2084377;28;20079;-88
2022/02/18 06:58:15;;;;;;;14.27;2.22;;;7.40;93.30;;;;;;2076040;28;20047;-89
2022/02/18 06:59:34;;;;;;;11.07;2.08;;;7.40;93.60;;;;;;2098671;28;20076;-89